»·PEaware :: BOE717 KBFI-KGEG

BOE717 :: KBFI-KGEG

FLIGHT INFORMATION

Flight Status: Arrived
Operator:
Boeing Commercial Airplane Group
More flights by this operator :: More flights under this callsign
Pilot: Ty S. (2873)
Aircraft: BOEING 737-300
(B733)
More flights by this aircraft type
Origin: KBFI Boeing Field/King Co Intl
United States
Destination: KGEG Spokane Intl
United States
More flights between these airports :: More routes between these airports
Route: +NRVNA1 ZADON ZELAK ZIRAN ZOOMR ZOOMR1
File this flight plan on PilotEdge
Remarks:
Altitude:
(Current/Filed)
27,000ft
Speed:
(Current/Filed)
371kts
Departed: 29-Dec-17 04:29 PM
Arrived: 29-Dec-17 05:06 PM
Distance/Time
Traveled:
193nm/0:37
Distance/Time
To Go:
Arrived

Flight Plot

Page will automatically refresh every two minutes.

Flight plan parsing failed; only flown route is shown


Map Options




Map Legend


Flown Route
Filed Route
Departure Airport
Arrival Airport
Navaid (VOR, NDB)
Fix

Horizontal Profiles

Position Reports

Time Latitude Longitude Heading Altitude Ground
Speed
29-Dec-17 15:54 47.534003 -122.308630 240 27ft 0kts
29-Dec-17 15:55 47.534003 -122.308630 240 27ft 0kts
29-Dec-17 15:56 47.534003 -122.308630 240 27ft 0kts
29-Dec-17 15:57 47.534003 -122.308630 240 27ft 0kts
29-Dec-17 15:58 47.534003 -122.308630 240 27ft 0kts
29-Dec-17 15:59 47.534003 -122.308630 240 27ft 0kts
29-Dec-17 16:00 47.534003 -122.308630 240 27ft 0kts
29-Dec-17 16:01 47.534003 -122.308630 240 27ft 0kts
29-Dec-17 16:02 47.534003 -122.308630 240 27ft 0kts
29-Dec-17 16:03 47.534003 -122.308630 240 27ft 0kts
29-Dec-17 16:04 47.534003 -122.308630 240 27ft 0kts
29-Dec-17 16:05 47.534003 -122.308630 240 27ft 0kts
29-Dec-17 16:06 47.534003 -122.308630 240 27ft 0kts
29-Dec-17 16:07 47.534003 -122.308630 240 27ft 0kts
29-Dec-17 16:08 47.534003 -122.308630 240 27ft 0kts
29-Dec-17 16:09 47.534003 -122.308630 240 27ft 0kts
29-Dec-17 16:10 47.534003 -122.308630 240 27ft 0kts
29-Dec-17 16:11 47.534003 -122.308630 240 27ft 0kts
29-Dec-17 16:12 47.534003 -122.308630 240 27ft 0kts
29-Dec-17 16:13 47.534003 -122.308630 240 27ft 0kts
29-Dec-17 16:14 47.534003 -122.308630 240 27ft 0kts
29-Dec-17 16:15 47.534003 -122.308630 240 27ft 0kts
29-Dec-17 16:16 47.534003 -122.308630 240 27ft 0kts
29-Dec-17 16:17 47.534003 -122.308630 240 27ft 0kts
29-Dec-17 16:18 47.534003 -122.308630 240 27ft 0kts
29-Dec-17 16:19 47.534003 -122.308630 240 27ft 0kts
29-Dec-17 16:20 47.534003 -122.308630 240 27ft 0kts
29-Dec-17 16:21 47.534003 -122.308630 240 27ft 0kts
29-Dec-17 16:22 47.534003 -122.308630 240 27ft 0kts
29-Dec-17 16:23 47.534003 -122.308630 240 27ft 0kts
29-Dec-17 16:24 47.534003 -122.308630 240 27ft 0kts
29-Dec-17 16:25 47.534003 -122.308630 240 27ft 0kts
29-Dec-17 16:26 47.534003 -122.308630 240 27ft 0kts
29-Dec-17 16:27 47.534003 -122.308630 240 27ft 0kts
29-Dec-17 16:28 47.533406 -122.308925 152 27ft 9kts
29-Dec-17 16:29 47.533240 -122.307806 57 27ft 0kts
29-Dec-17 16:30 47.533240 -122.307806 57 27ft 0kts
29-Dec-17 16:31 47.533681 -122.307202 354 27ft 11kts
29-Dec-17 16:32 47.537776 -122.310550 330 27ft 21kts
29-Dec-17 16:33 47.539562 -122.312024 341 27ft 0kts
29-Dec-17 16:34 47.539915 -122.310841 149 27ft 10kts
29-Dec-17 16:35 47.518602 -122.293767 152 557ft 164kts
29-Dec-17 16:36 47.471863 -122.256846 146 1476ft 202kts
29-Dec-17 16:37 47.424325 -122.214170 148 3221ft 216kts
29-Dec-17 16:38 47.391783 -122.148411 64 5684ft 224kts
29-Dec-17 16:39 47.430588 -122.058202 53 7243ft 287kts
29-Dec-17 16:40 47.474272 -121.953200 54 9353ft 314kts
29-Dec-17 16:41 47.523191 -121.834557 57 10895ft 370kts
29-Dec-17 16:42 47.562634 -121.693989 96 13536ft 385kts
29-Dec-17 16:43 47.559670 -121.531797 96 16262ft 408kts
29-Dec-17 16:44 47.557152 -121.359832 96 18781ft 429kts
29-Dec-17 16:45 47.554459 -121.182104 97 21071ft 446kts
29-Dec-17 16:46 47.551273 -120.993271 95 22968ft 470kts
29-Dec-17 16:47 47.547644 -120.796759 95 24863ft 489kts
29-Dec-17 16:48 47.543523 -120.593337 95 26642ft 506kts
29-Dec-17 16:49 47.538494 -120.391172 99 27059ft 470kts
29-Dec-17 16:50 47.529718 -120.214163 99 27033ft 470kts
29-Dec-17 16:51 47.520806 -120.021677 99 27037ft 470kts
29-Dec-17 16:52 47.511568 -119.829206 99 27028ft 470kts
29-Dec-17 16:53 47.501989 -119.636226 99 27018ft 470kts
29-Dec-17 16:54 47.492100 -119.443617 99 26163ft 470kts
29-Dec-17 16:55 47.482672 -119.264755 100 24426ft 453kts
29-Dec-17 16:56 47.472755 -119.082882 100 22636ft 437kts
29-Dec-17 16:57 47.462931 -118.907822 98 20848ft 418kts
29-Dec-17 16:58 47.453333 -118.741389 97 19069ft 400kts
29-Dec-17 16:59 47.445385 -118.606684 97 17579ft 395kts
29-Dec-17 17:00 47.434198 -118.421476 97 15489ft 379kts
29-Dec-17 17:01 47.426775 -118.276711 95 13750ft 364kts
29-Dec-17 17:02 47.421623 -118.131299 94 11962ft 348kts
29-Dec-17 17:03 47.414787 -117.991779 91 10376ft 329kts
29-Dec-17 17:04 47.427491 -117.891403 74 9750ft 276kts
29-Dec-17 17:05 47.446581 -117.793603 50 8752ft 221kts
29-Dec-17 17:06 47.485556 -117.735274 37 6949ft 185kts
29-Dec-17 17:07 47.519021 -117.687672 43 4864ft 132kts
29-Dec-17 17:08 47.542581 -117.651595 43 4320ft 121kts
29-Dec-17 17:09 47.566706 -117.615419 44 3646ft 125kts
29-Dec-17 17:10 47.591357 -117.579224 43 2980ft 127kts
29-Dec-17 17:11 47.615463 -117.541975 45 2391ft 106kts
29-Dec-17 17:12 47.624257 -117.530917 13 2391ft 0kts
29-Dec-17 17:13 47.624352 -117.530883 12 2391ft 4kts
29-Dec-17 17:14 47.625610 -117.534101 279 2391ft 0kts
29-Dec-17 17:19 47.625610 -117.534102 279 2391ft 0kts
29-Dec-17 17:20 47.625610 -117.534102 279 2391ft 0kts
29-Dec-17 17:21 47.625610 -117.534102 279 2391ft 0kts

Navigation Log

Ident Type
Flight plan parsing failed, navigation log unavailable